Report METAR

 

Warning: fopen(./cache/metarcache-KSJC.txt): failed to open stream: No such file or directory in /web/htdocs/www.oristanometeo.com/home/get-metar-conditions-inc.php on line 195 Warning: fopen(./cache/metarcache-KNUQ.txt): failed to open stream: No such file or directory in /web/htdocs/www.oristanometeo.com/home/get-metar-conditions-inc.php on line 195 Warning: fopen(./cache/metarcache-KPAO.txt): failed to open stream: No such file or directory in /web/htdocs/www.oristanometeo.com/home/get-metar-conditions-inc.php on line 195 Warning: fopen(./cache/metarcache-KRHV.txt): failed to open stream: No such file or directory in /web/htdocs/www.oristanometeo.com/home/get-metar-conditions-inc.php on line 195 Warning: fopen(./cache/metarcache-KOAK.txt): failed to open stream: No such file or directory in /web/htdocs/www.oristanometeo.com/home/get-metar-conditions-inc.php on line 195 Warning: fopen(./cache/metarcache-KSQL.txt): failed to open stream: No such file or directory in /web/htdocs/www.oristanometeo.com/home/get-metar-conditions-inc.php on line 195 Warning: fopen(./cache/metarcache-KSFO.txt): failed to open stream: No such file or directory in /web/htdocs/www.oristanometeo.com/home/get-metar-conditions-inc.php on line 195 Warning: fopen(./cache/metarcache-KE16.txt): failed to open stream: No such file or directory in /web/htdocs/www.oristanometeo.com/home/get-metar-conditions-inc.php on line 195 Warning: fopen(./cache/metarcache-KWVI.txt): failed to open stream: No such file or directory in /web/htdocs/www.oristanometeo.com/home/get-metar-conditions-inc.php on line 195 Warning: fopen(./cache/metarcache-KHAF.txt): failed to open stream: No such file or directory in /web/htdocs/www.oristanometeo.com/home/get-metar-conditions-inc.php on line 195 Warning: fopen(./cache/metarcache-KHWD.txt): failed to open stream: No such file or directory in /web/htdocs/www.oristanometeo.com/home/get-metar-conditions-inc.php on line 195 Warning: fopen(./cache/metarcache-KLVK.txt): failed to open stream: No such file or directory in /web/htdocs/www.oristanometeo.com/home/get-metar-conditions-inc.php on line 195
KSJC - San Jose, California, USA
Distance from station: NE 14km
Dati ricevuti: 27/11/2021 19:53
Few Clouds
Few Clouds
 Vento da calmo
Vento: Calma
Temperatura: 17°C
P.to Rugiada: 5°C
Umidità: 45%
Barometro: 1021.3 hPa
Nuvole: Few Clouds
Visibility: 16 km
Cloud details: Few Clouds 213 m
Few Clouds 2743 m
2021/11/27 18:53 KSJC 271853Z 00000KT 10SM FEW007 FEW090 17/05 A3016 RMK AO2 SLP211 T01670050
KNUQ - Moffett Nas/Mtn, California, USA
Distance from station: N 14km
Dati ricevuti: 27/11/2021 20:35
Sereno
Sereno
 Vento da N
Vento: N 11 km/h
Temperatura: 17°C
P.to Rugiada: 6°C
Umidità: 49%
Barometro: 1020.7 hPa
Nuvole: Sereno
Visibility: 14 km
2021/11/27 19:35 KNUQ 271935Z AUTO 01006KT 9SM CLR 17/06 A3014 RMK AO2
KPAO - Palo Alto, California, USA
Distance from station: NNO 23km
Dati ricevuti: 27/11/2021 20:47
Sereno
Sereno
 Vento da N
Vento: N 7 km/h
Temperatura: 15°C
P.to Rugiada: 9°C
Umidità: 68%
Barometro: 1021 hPa
Nuvole: Sereno
Visibility: 16 km
2021/11/27 19:47 KPAO 271947Z 01004KT 10SM SKC 15/09 A3015
 
KRHV - San Jose/Reid, California, USA
Distance from station: ENE 19km
Dati ricevuti: 27/11/2021 19:47
Sereno
Sereno
 Vento da calmo
Vento: Calma
Temperatura: 16°C
P.to Rugiada: 6°C
Umidità: 52%
Barometro: 1021.7 hPa
Nuvole: Sereno
Visibility: 16 km
2021/11/27 18:47 KRHV 271847Z 00000KT 10SM SKC 16/06 A3017
KOAK - Oakland, California, USA
Distance from station: NNO 50km
Dati ricevuti: 27/11/2021 19:53
Few Clouds
Few Clouds
 Vento da O
Vento: O 7 km/h
Temperatura: 14°C
P.to Rugiada: 9°C
Umidità: 72%
Barometro: 1022 hPa
Nuvole: Few Clouds
Visibility: 16 km
Cloud details: Few Clouds 762 m
Few Clouds 6096 m
2021/11/27 18:53 KOAK 271853Z 26004KT 10SM FEW025 FEW200 14/09 A3018 RMK AO2 SLP220 T01390094
KSQL - San Carlos Airpo, California, USA
Distance from station: NO 34km
Dati ricevuti: 27/11/2021 18:57
DATI Obsoleti
Few Clouds
Few Clouds
 Vento da calmo
Vento: Calma
Temperatura: 13°C
P.to Rugiada: 9°C
Umidità: 77%
Barometro: 1022 hPa
Nuvole: Few Clouds
Visibility: 16 km
Cloud details: Few Clouds 6096 m
2021/11/27 17:57 KSQL 271757Z 00000KT 10SM FEW200 13/09 A3018
 
KSFO - San Francisco, California, USA
Distance from station: NO 49km
Dati ricevuti: 27/11/2021 19:56
Few Clouds
Few Clouds
 Vento da NE
Vento: NE 7 km/h
Temperatura: 15°C
P.to Rugiada: 11°C
Umidità: 77%
Barometro: 1021.3 hPa
Nuvole: Few Clouds
Visibility: 16 km
Cloud details: Few Clouds 6096 m
2021/11/27 18:56 KSFO 271856Z 04004KT 10SM FEW200 15/11 A3016 RMK AO2 SLP214 T01500106 $
KE16 - San Martin, California, USA
Distance from station: ESE 43km
Dati ricevuti: 27/11/2021 20:35
Sereno
Sereno
 Vento da N
Vento: N 7 km/h
Temperatura: 18°C
P.to Rugiada: 5°C
Umidità: 43%
Barometro: 1021 hPa
Nuvole: Sereno
Visibility: 16 km
2021/11/27 19:35 KE16 271935Z AUTO 35004KT 10SM CLR 18/05 A3015 RMK AO2 PWINO PNO
KWVI - Watsonville, California, USA
Distance from station: SSE 44km
Dati ricevuti: 27/11/2021 19:53
Sereno
Sereno
 Vento da S
Vento: S 6 km/h
Temperatura: 18°C
P.to Rugiada: 7°C
Umidità: 49%
Barometro: 1020.7 hPa
Nuvole: Sereno
Visibility: 16 km
2021/11/27 18:53 KWVI 271853Z AUTO 17003KT 10SM CLR 18/07 A3014 RMK AO2 SLP206 T01830072
 
KHAF - Half Moon Bay, California, USA
Distance from station: ONO 50km
Dati ricevuti: 27/11/2021 20:35
Haze, Sereno
Haze, Sereno
 Vento da NO
Vento: NO 9 km/h
Temperatura: 17°C
P.to Rugiada: 9°C
Umidità: 59%
Barometro: 1020.7 hPa
Summary: Haze
Nuvole: Sereno
Visibility: 5 km
2021/11/27 19:35 KHAF 271935Z AUTO 32005KT 3SM HZ CLR 17/09 A3014 RMK AO2
KHWD - Hayward, California, USA
Distance from station: N 44km
Dati ricevuti: 27/11/2021 19:54
Sereno
Sereno
 Vento da calmo
Vento: Calma
Temperatura: 16°C
P.to Rugiada: 7°C
Umidità: 55%
Barometro: 1021.3 hPa
Nuvole: Sereno
Visibility: 16 km
2021/11/27 18:54 KHWD 271854Z 00000KT 10SM CLR 16/07 A3016 RMK AO2 SLP222 T01560067
KLVK - Livermore, California, USA
Distance from station: NNE 51km
Dati ricevuti: 27/11/2021 19:53
Sereno
Sereno
 Vento da SO
Vento: SO 9 km/h
Temperatura: 16°C
P.to Rugiada: 7°C
Umidità: 55%
Barometro: 1021.3 hPa
Nuvole: Sereno
Visibility: 16 km
2021/11/27 18:53 KLVK 271853Z 23005KT 10SM CLR 16/07 A3016 RMK AO2 SLP211 T01560067